1874 Hurricane NOT_NAMED (1874240N13326)


IBTrACS version v04r00. Visit IBTrACS website for data access.
Please direct all questions to the IBTrACS Q and A forum

Storm track - Intensity - Wind Radii - Intensity Data - Source Data - All data

Summary Information

Storm ID 1874240N13326
Start Aug 27 12Z
Max Intensity 80 kt (Sep 2 06Z)
End Sep 2 06Z
ATCF IDs
Track status Best track data.
Spur track This storm is a spur track associated with the main storm: 1874241N14326

Storm track plot

Map of storm track

Intensity plots

Map of storm track

Radial wind information

No radial wind information for this storm


Position and Intensity Table

BASIN ISO_TIME_________ NATURE LAT LON MLC WIND
degrees north degrees east kts
NA 1874-08-27 12:00:00 TS 13.40 -33.60 30
NA 15:00:00 TS 13.40 -34.10 32
NA 18:00:00 TS 13.40 -34.60 35
NA 21:00:00 TS 13.40 -35.10 37
NA 1874-08-28 00:00:00 TS 13.40 -35.60 40
NA 03:00:00 TS 13.40 -36.10 42
NA 06:00:00 TS 13.40 -36.60 45
NA 09:00:00 TS 13.39 -37.09 47
NA 12:00:00 TS 13.40 -37.60 50
NA 15:00:00 TS 13.45 -38.15 50
NA 18:00:00 TS 13.50 -38.70 50
NA 21:00:00 TS 13.50 -39.20 50
NA 1874-08-29 00:00:00 TS 13.50 -39.70 50
NA 03:00:00 TS 13.53 -40.25 50
NA 06:00:00 TS 13.60 -40.80 50
NA 09:00:00 TS 13.69 -41.31 55
NA 12:00:00 TS 13.80 -41.80 60
NA 15:00:00 TS 13.91 -42.30 60
NA 18:00:00 TS 14.00 -42.80 60
NA 21:00:00 TS 14.04 -43.29 60
NA 1874-08-30 00:00:00 TS 14.10 -43.80 60
NA 03:00:00 TS 14.24 -44.35 60
NA 06:00:00 TS 14.40 -44.90 60
NA 09:00:00 TS 14.50 -45.41 62
NA 12:00:00 TS 14.60 -45.90 65
NA 15:00:00 TS 14.75 -46.40 65
NA 18:00:00 TS 14.90 -46.90 65
NA 21:00:00 TS 14.99 -47.38 65
NA 1874-08-31 00:00:00 TS 15.10 -47.90 65
NA 03:00:00 TS 15.28 -48.53 65
NA 06:00:00 TS 15.50 -49.20 65
NA 09:00:00 TS 15.74 -49.85 67
NA 12:00:00 TS 16.00 -50.50 70
NA 15:00:00 TS 16.26 -51.16 70
NA 18:00:00 TS 16.50 -51.80 70
NA 21:00:00 TS 16.70 -52.44 70
NA 1874-09-01 00:00:00 TS 16.90 -53.00 70
NA 03:00:00 TS 17.15 -53.44 70
NA 06:00:00 TS 17.40 -53.80 70
NA 09:00:00 TS 17.60 -54.15 72
NA 12:00:00 TS 17.80 -54.50 75
NA 15:00:00 TS 18.04 -54.90 75
NA 18:00:00 TS 18.30 -55.30 75
NA 21:00:00 TS 18.50 -55.67 75
NA 1874-09-02 00:00:00 TS 18.80 -56.00 75
NA 03:00:00 TS 19.35 -56.31 77
NA 06:00:00 TS 20.00 -56.60 80

Source Information

Agency Information
USA
TOKYO
CMA
HKO
NEWDELHI
REUNION
BOM
NADI
WELLINGTON
DS824
TD9636
TD9635
NEUMANN
MLC

All available IBTrACS Data

SEASON BASIN SUBBASIN ISO_TIME_________ NATURE LAT LON DIST2LAND LANDFALL IFLAG USA SSHS MLC LAT MLC LON MLC CLASS MLC WIND STORM SPEED STORM DIR
Year degrees north degrees east km km 1 degrees north degrees east kts kts degrees
1874 NA NA 1874-08-27 12:00:00 TS 13.40 -33.60 1743 1743 _____________O -1 13.40 -33.60 TD 30 10 270
1874 NA NA 15:00:00 TS 13.40 -34.10 1797 1797 _____________P -1 13.40 -34.10 TD 32 10 270
1874 NA NA 18:00:00 TS 13.40 -34.60 1850 1850 _____________O -1 13.40 -34.60 TS 35 10 270
1874 NA NA 21:00:00 TS 13.40 -35.10 1898 1884 _____________P -1 13.40 -35.10 TS 37 10 270
1874 NA NA 1874-08-28 00:00:00 TS 13.40 -35.60 1884 1871 _____________O -1 13.40 -35.60 TS 40 10 270
1874 NA NA 03:00:00 TS 13.40 -36.10 1871 1860 _____________P -1 13.40 -36.10 TS 42 10 270
1874 NA NA 06:00:00 TS 13.40 -36.60 1860 1850 _____________O -1 13.40 -36.60 TS 45 10 270
1874 NA NA 09:00:00 TS 13.39 -37.09 1850 1817 _____________P -1 13.39 -37.09 TS 47 10 270
1874 NA NA 12:00:00 TS 13.40 -37.60 1817 1772 _____________O -1 13.40 -37.60 TS 50 10 273
1874 NA NA 15:00:00 TS 13.45 -38.15 1772 1725 _____________P -1 13.45 -38.15 TS 50 11 275
1874 NA NA 18:00:00 TS 13.50 -38.70 1725 1681 _____________O -1 13.50 -38.70 TS 50 10 273
1874 NA NA 21:00:00 TS 13.50 -39.20 1681 1638 _____________P -1 13.50 -39.20 TS 50 10 270
1874 NA NA 1874-08-29 00:00:00 TS 13.50 -39.70 1638 1596 _____________O -1 13.50 -39.70 TS 50 10 272
1874 NA NA 03:00:00 TS 13.53 -40.25 1587 1553 _____________P -1 13.53 -40.25 TS 50 11 275
1874 NA NA 06:00:00 TS 13.60 -40.80 1553 1521 _____________O -1 13.60 -40.80 TS 50 10 279
1874 NA NA 09:00:00 TS 13.69 -41.31 1521 1489 _____________P -1 13.69 -41.31 TS 55 10 282
1874 NA NA 12:00:00 TS 13.80 -41.80 1489 1460 _____________O -1 13.80 -41.80 TS 60 10 283
1874 NA NA 15:00:00 TS 13.91 -42.30 1460 1431 _____________P -1 13.91 -42.30 TS 60 10 282
1874 NA NA 18:00:00 TS 14.00 -42.80 1431 1396 _____________O -1 14.00 -42.80 TS 60 10 278
1874 NA NA 21:00:00 TS 14.04 -43.29 1396 1371 _____________P -1 14.04 -43.29 TS 60 10 276
1874 NA NA 1874-08-30 00:00:00 TS 14.10 -43.80 1371 1348 _____________O -1 14.10 -43.80 TS 60 10 281
1874 NA NA 03:00:00 TS 14.24 -44.35 1348 1331 _____________P -1 14.24 -44.35 TS 60 11 286
1874 NA NA 06:00:00 TS 14.40 -44.90 1331 1306 _____________O -1 14.40 -44.90 TS 60 11 284
1874 NA NA 09:00:00 TS 14.50 -45.41 1306 1283 _____________P -1 14.50 -45.41 TS 62 10 282
1874 NA NA 12:00:00 TS 14.60 -45.90 1283 1262 _____________O -1 14.60 -45.90 HU 65 10 285
1874 NA NA 15:00:00 TS 14.75 -46.40 1262 1252 _____________P -1 14.75 -46.40 HU 65 10 287
1874 NA NA 18:00:00 TS 14.90 -46.90 1252 1236 _____________O -1 14.90 -46.90 HU 65 10 284
1874 NA NA 21:00:00 TS 14.99 -47.38 1236 1221 _____________P -1 14.99 -47.38 HU 65 10 282
1874 NA NA 1874-08-31 00:00:00 TS 15.10 -47.90 1221 1208 _____________O -1 15.10 -47.90 HU 65 11 284
1874 NA NA 03:00:00 TS 15.28 -48.53 1214 1200 _____________P -1 15.28 -48.53 HU 65 13 288
1874 NA NA 06:00:00 TS 15.50 -49.20 1205 1196 _____________O -1 15.50 -49.20 HU 65 14 290
1874 NA NA 09:00:00 TS 15.74 -49.85 1193 1193 _____________P -1 15.74 -49.85 HU 67 13 292
1874 NA NA 12:00:00 TS 16.00 -50.50 1201 1197 _____________O -1 16.00 -50.50 HU 70 14 292
1874 NA NA 15:00:00 TS 16.26 -51.16 1209 1187 _____________P -1 16.26 -51.16 HU 70 13 292
1874 NA NA 18:00:00 TS 16.50 -51.80 1187 1146 _____________O -1 16.50 -51.80 HU 70 13 290
1874 NA NA 21:00:00 TS 16.70 -52.44 1146 1108 _____________P -1 16.70 -52.44 HU 70 12 289
1874 NA NA 1874-09-01 00:00:00 TS 16.90 -53.00 1108 1089 _____________O -1 16.90 -53.00 HU 70 11 295
1874 NA NA 03:00:00 TS 17.15 -53.44 1089 1079 _____________P -1 17.15 -53.44 HU 70 9 303
1874 NA NA 06:00:00 TS 17.40 -53.80 1079 1064 _____________O -1 17.40 -53.80 HU 70 8 304
1874 NA NA 09:00:00 TS 17.60 -54.15 1064 1058 _____________P -1 17.60 -54.15 HU 72 8 301
1874 NA NA 12:00:00 TS 17.80 -54.50 1059 1048 _____________O -1 17.80 -54.50 HU 75 8 302
1874 NA NA 15:00:00 TS 18.04 -54.90 1048 1043 _____________P -1 18.04 -54.90 HU 75 9 303
1874 NA NA 18:00:00 TS 18.30 -55.30 1048 1039 _____________O -1 18.30 -55.30 HU 75 9 302
1874 NA NA 21:00:00 TS 18.50 -55.67 1042 1012 _____________P -1 18.50 -55.67 HU 75 8 307
1874 NA NA 1874-09-02 00:00:00 TS 18.80 -56.00 1012 982 _____________O -1 18.80 -56.00 HU 75 10 324
1874 NA NA 03:00:00 TS 19.35 -56.31 983 960 _____________P -1 19.33 -56.31 HU 77 13 335
1874 NA NA 06:00:00 TS 20.00 -56.60 961 _____________O -1 20.00 -56.60 HU 80 14 337